Aviation Digital Data Service (ADDS)

Output produced by METARs form (0303 UTC 20 March 2019)
found at http://www.aviationweather.gov/metar/data/
 
METAR text: SAEZ 200200Z 21002KT 9999 SCT042 SCT100 12/11 Q1021 NOSIG
Conditions at: SAEZ (BUENOS AIRES/EZE, AR) observed 0200 UTC 20 March 2019
Temperature: 12.0°C (54°F)
Dewpoint: 11.0°C (52°F) [RH = 94%]
Pressure (altimeter): 30.15 inches Hg (1021.0 mb)
Winds: from the SSW (210 degrees) at 2 MPH (2 knots; 1.0 m/s)
Visibility: 6 or more miles (10+ km)
Ceiling: at least 12,000 feet AGL
Clouds: scattered clouds at 4200 feet AGL
scattered clouds at 10000 feet AGL
Weather: no significant weather observed at this time

METAR text: SAEZ 200100Z 20002KT CAVOK 13/11 Q1020 NOSIG
Conditions at: SAEZ (BUENOS AIRES/EZE, AR) observed 0100 UTC 20 March 2019
Temperature: 13.0°C (55°F)
Dewpoint: 11.0°C (52°F) [RH = 88%]
Pressure (altimeter): 30.12 inches Hg (1020.0 mb)
Winds: from the SSW (200 degrees) at 2 MPH (2 knots; 1.0 m/s)
Visibility: 6 or more miles (10+ km)
Ceiling: ceiling and visibility are OK
Clouds: unknown
Weather: no significant weather observed at this time

METAR text: SAEZ 200000Z 19003KT CAVOK 13/11 Q1019 NOSIG
Conditions at: SAEZ (BUENOS AIRES/EZE, AR) observed 0000 UTC 20 March 2019
Temperature: 13.0°C (55°F)
Dewpoint: 11.0°C (52°F) [RH = 88%]
Pressure (altimeter): 30.09 inches Hg (1019.0 mb)
Winds: from the S (190 degrees) at 3 MPH (3 knots; 1.5 m/s)
Visibility: 6 or more miles (10+ km)
Ceiling: ceiling and visibility are OK
Clouds: unknown
Weather: no significant weather observed at this time

METAR text: SAEZ 192300Z 18003KT CAVOK 14/12 Q1019 NOSIG
Conditions at: SAEZ (BUENOS AIRES/EZE, AR) observed 2300 UTC 19 March 2019
Temperature: 14.0°C (57°F)
Dewpoint: 12.0°C (54°F) [RH = 88%]
Pressure (altimeter): 30.09 inches Hg (1019.0 mb)
Winds: from the S (180 degrees) at 3 MPH (3 knots; 1.5 m/s)
Visibility: 6 or more miles (10+ km)
Ceiling: ceiling and visibility are OK
Clouds: unknown
Weather: no significant weather observed at this time

METAR text: SAEZ 192200Z 16006KT CAVOK 16/13 Q1018 NOSIG
Conditions at: SAEZ (BUENOS AIRES/EZE, AR) observed 2200 UTC 19 March 2019
Temperature: 16.0°C (61°F)
Dewpoint: 13.0°C (55°F) [RH = 82%]
Pressure (altimeter): 30.06 inches Hg (1018.0 mb)
Winds: from the SSE (160 degrees) at 7 MPH (6 knots; 3.1 m/s)
Visibility: 6 or more miles (10+ km)
Ceiling: ceiling and visibility are OK
Clouds: unknown
Weather: no significant weather observed at this time

METAR text: SAEZ 192100Z 18004KT CAVOK 16/12 Q1018 NOSIG
Conditions at: SAEZ (BUENOS AIRES/EZE, AR) observed 2100 UTC 19 March 2019
Temperature: 16.0°C (61°F)
Dewpoint: 12.0°C (54°F) [RH = 77%]
Pressure (altimeter): 30.06 inches Hg (1018.0 mb)
Winds: from the S (180 degrees) at 5 MPH (4 knots; 2.1 m/s)
Visibility: 6 or more miles (10+ km)
Ceiling: ceiling and visibility are OK
Clouds: unknown
Weather: no significant weather observed at this time

METAR text: SAEZ 192000Z 16009KT CAVOK 16/12 Q1017 NOSIG
Conditions at: SAEZ (BUENOS AIRES/EZE, AR) observed 2000 UTC 19 March 2019
Temperature: 16.0°C (61°F)
Dewpoint: 12.0°C (54°F) [RH = 77%]
Pressure (altimeter): 30.03 inches Hg (1017.0 mb)
Winds: from the SSE (160 degrees) at 10 MPH (9 knots; 4.6 m/s)
Visibility: 6 or more miles (10+ km)
Ceiling: ceiling and visibility are OK
Clouds: unknown
Weather: no significant weather observed at this time

METAR text: SAEZ 191900Z 09007KT CAVOK 16/12 Q1017 BECMG 8000 DZ
Conditions at: SAEZ (BUENOS AIRES/EZE, AR) observed 1900 UTC 19 March 2019
Temperature: 16.0°C (61°F)
Dewpoint: 12.0°C (54°F) [RH = 77%]
Pressure (altimeter): 30.03 inches Hg (1017.0 mb)
Winds: from the E (90 degrees) at 8 MPH (7 knots; 3.6 m/s)
Visibility: 6 or more miles (10+ km)
Ceiling: ceiling and visibility are OK
Clouds: unknown
Weather: no significant weather observed at this time

METAR text: SAEZ 191800Z 16005KT 6000 -RA FEW028 BKN050 OVC100 15/13 Q1018BECMG 8000 DZ
Conditions at: SAEZ (BUENOS AIRES/EZE, AR) observed 1800 UTC 19 March 2019
Temperature: 15.0°C (59°F)
Dewpoint: 13.0°C (55°F) [RH = 88%]
Pressure (altimeter): missing
Winds: from the SSE (160 degrees) at 6 MPH (5 knots; 2.6 m/s)
Visibility: 4 miles ( 6 km)
Ceiling: 5000 feet AGL
Clouds: few clouds at 2800 feet AGL
broken clouds at 5000 feet AGL
overcast cloud deck at 10000 feet AGL
Weather: -RA DZ  (light rain, moderate drizzle)

METAR text: SAEZ 191712Z 00000KT 5000 -RA DZ SCT028 SCT050 OVC090 16/11 Q1017 NOSIG
Conditions at: SAEZ (BUENOS AIRES/EZE, AR) observed 1712 UTC 19 March 2019
Temperature: 16.0°C (61°F)
Dewpoint: 11.0°C (52°F) [RH = 72%]
Pressure (altimeter): 30.03 inches Hg (1017.0 mb)
Winds: calm
Visibility: 3 miles ( 5 km)
Ceiling: 9000 feet AGL
Clouds: scattered clouds at 2800 feet AGL
scattered clouds at 5000 feet AGL
overcast cloud deck at 9000 feet AGL
Weather: -RA DZ  (light rain, moderate drizzle)

METAR text: SAEZ 191700Z 19004KT 9000 -RA FEW030 OVC100 16/11 Q1018 BECMG8000 DZ
Conditions at: SAEZ (BUENOS AIRES/EZE, AR) observed 1700 UTC 19 March 2019
Temperature: 16.0°C (61°F)
Dewpoint: 11.0°C (52°F) [RH = 72%]
Pressure (altimeter): 30.06 inches Hg (1018.0 mb)
Winds: from the S (190 degrees) at 5 MPH (4 knots; 2.1 m/s)
Visibility: 6 miles ( 9 km)
Ceiling: 10000 feet AGL
Clouds: few clouds at 3000 feet AGL
overcast cloud deck at 10000 feet AGL
Weather: -RA  (light rain)

METAR text: SAEZ 191600Z 20007KT 9000 -RA FEW032 OVC100 16/11 Q1020 NOSIG
Conditions at: SAEZ (BUENOS AIRES/EZE, AR) observed 1600 UTC 19 March 2019
Temperature: 16.0°C (61°F)
Dewpoint: 11.0°C (52°F) [RH = 72%]
Pressure (altimeter): 30.12 inches Hg (1020.0 mb)
Winds: from the SSW (200 degrees) at 8 MPH (7 knots; 3.6 m/s)
Visibility: 6 miles ( 9 km)
Ceiling: 10000 feet AGL
Clouds: few clouds at 3200 feet AGL
overcast cloud deck at 10000 feet AGL
Weather: -RA  (light rain)

METAR text: SAEZ 191500Z 19008KT 150V230 CAVOK 17/11 Q1018 TEMPO 8000 SHRAFEW050CB
Conditions at: SAEZ (BUENOS AIRES/EZE, AR) observed 1500 UTC 19 March 2019
Temperature: 17.0°C (63°F)
Dewpoint: 11.0°C (52°F) [RH = 68%]
Pressure (altimeter): 30.06 inches Hg (1018.0 mb)
Winds: from the S (190 degrees) at 9 MPH (8 knots; 4.1 m/s)
Visibility: 6 or more miles (10+ km)
Ceiling: ceiling and visibility are OK
Clouds: unknown
Weather: no significant weather observed at this time

METAR text: SAEZ 191400Z 15011KT CAVOK 18/10 Q1018 TEMPO 8000 SHRAFEW050CB
Conditions at: SAEZ (BUENOS AIRES/EZE, AR) observed 1400 UTC 19 March 2019
Temperature: 18.0°C (64°F)
Dewpoint: 10.0°C (50°F) [RH = 59%]
Pressure (altimeter): 30.06 inches Hg (1018.0 mb)
Winds: from the SSE (150 degrees) at 13 MPH (11 knots; 5.7 m/s)
Visibility: 6 or more miles (10+ km)
Ceiling: ceiling and visibility are OK
Clouds: unknown
Weather: no significant weather observed at this time

METAR text: SAEZ 191300Z 13011KT 100V180 CAVOK 17/11 Q1017 NOSIG
Conditions at: SAEZ (BUENOS AIRES/EZE, AR) observed 1300 UTC 19 March 2019
Temperature: 17.0°C (63°F)
Dewpoint: 11.0°C (52°F) [RH = 68%]
Pressure (altimeter): 30.03 inches Hg (1017.0 mb)
Winds: from the SE (130 degrees) at 13 MPH (11 knots; 5.7 m/s)
Visibility: 6 or more miles (10+ km)
Ceiling: ceiling and visibility are OK
Clouds: unknown
Weather: no significant weather observed at this time

METAR text: SAEZ 191200Z 13008KT 100V170 CAVOK 16/12 Q1016 NOSIG
Conditions at: SAEZ (BUENOS AIRES/EZE, AR) observed 1200 UTC 19 March 2019
Temperature: 16.0°C (61°F)
Dewpoint: 12.0°C (54°F) [RH = 77%]
Pressure (altimeter): 30.00 inches Hg (1016.0 mb)
Winds: from the SE (130 degrees) at 9 MPH (8 knots; 4.1 m/s)
Visibility: 6 or more miles (10+ km)
Ceiling: ceiling and visibility are OK
Clouds: unknown
Weather: no significant weather observed at this time

METAR text: SAEZ 191100Z 16010KT CAVOK 15/12 Q1015 NOSIG
Conditions at: SAEZ (BUENOS AIRES/EZE, AR) observed 1100 UTC 19 March 2019
Temperature: 15.0°C (59°F)
Dewpoint: 12.0°C (54°F) [RH = 82%]
Pressure (altimeter): 29.97 inches Hg (1015.0 mb)
Winds: from the SSE (160 degrees) at 12 MPH (10 knots; 5.1 m/s)
Visibility: 6 or more miles (10+ km)
Ceiling: ceiling and visibility are OK
Clouds: unknown
Weather: no significant weather observed at this time

METAR text: SAEZ 191000Z 13007KT CAVOK 14/12 Q1014 NOSIG
Conditions at: SAEZ (BUENOS AIRES/EZE, AR) observed 1000 UTC 19 March 2019
Temperature: 14.0°C (57°F)
Dewpoint: 12.0°C (54°F) [RH = 88%]
Pressure (altimeter): 29.94 inches Hg (1014.0 mb)
Winds: from the SE (130 degrees) at 8 MPH (7 knots; 3.6 m/s)
Visibility: 6 or more miles (10+ km)
Ceiling: ceiling and visibility are OK
Clouds: unknown
Weather: no significant weather observed at this time

METAR text: SAEZ 190900Z 14005KT CAVOK 14/12 Q1013 NOSIG
Conditions at: SAEZ (BUENOS AIRES/EZE, AR) observed 0900 UTC 19 March 2019
Temperature: 14.0°C (57°F)
Dewpoint: 12.0°C (54°F) [RH = 88%]
Pressure (altimeter): 29.91 inches Hg (1013.0 mb)
Winds: from the SE (140 degrees) at 6 MPH (5 knots; 2.6 m/s)
Visibility: 6 or more miles (10+ km)
Ceiling: ceiling and visibility are OK
Clouds: unknown
Weather: no significant weather observed at this time

METAR text: SAEZ 190800Z 16006KT CAVOK 14/12 Q1013 NOSIG
Conditions at: SAEZ (BUENOS AIRES/EZE, AR) observed 0800 UTC 19 March 2019
Temperature: 14.0°C (57°F)
Dewpoint: 12.0°C (54°F) [RH = 88%]
Pressure (altimeter): 29.91 inches Hg (1013.0 mb)
Winds: from the SSE (160 degrees) at 7 MPH (6 knots; 3.1 m/s)
Visibility: 6 or more miles (10+ km)
Ceiling: ceiling and visibility are OK
Clouds: unknown
Weather: no significant weather observed at this time

METAR text: SAEZ 190700Z 17007KT CAVOK 15/13 Q1012 NOSIG
Conditions at: SAEZ (BUENOS AIRES/EZE, AR) observed 0700 UTC 19 March 2019
Temperature: 15.0°C (59°F)
Dewpoint: 13.0°C (55°F) [RH = 88%]
Pressure (altimeter): 29.88 inches Hg (1012.0 mb)
Winds: from the S (170 degrees) at 8 MPH (7 knots; 3.6 m/s)
Visibility: 6 or more miles (10+ km)
Ceiling: ceiling and visibility are OK
Clouds: unknown
Weather: no significant weather observed at this time

METAR text: SAEZ 190600Z 18006KT 160V220 CAVOK 15/13 Q1012 NOSIG
Conditions at: SAEZ (BUENOS AIRES/EZE, AR) observed 0600 UTC 19 March 2019
Temperature: 15.0°C (59°F)
Dewpoint: 13.0°C (55°F) [RH = 88%]
Pressure (altimeter): 29.88 inches Hg (1012.0 mb)
Winds: from the S (180 degrees) at 7 MPH (6 knots; 3.1 m/s)
Visibility: 6 or more miles (10+ km)
Ceiling: ceiling and visibility are OK
Clouds: unknown
Weather: no significant weather observed at this time

METAR text: SAEZ 190500Z 16008KT CAVOK 16/12 Q1012 NOSIG
Conditions at: SAEZ (BUENOS AIRES/EZE, AR) observed 0500 UTC 19 March 2019
Temperature: 16.0°C (61°F)
Dewpoint: 12.0°C (54°F) [RH = 77%]
Pressure (altimeter): 29.88 inches Hg (1012.0 mb)
Winds: from the SSE (160 degrees) at 9 MPH (8 knots; 4.1 m/s)
Visibility: 6 or more miles (10+ km)
Ceiling: ceiling and visibility are OK
Clouds: unknown
Weather: no significant weather observed at this time

METAR text: SAEZ 190400Z 14010KT CAVOK 17/13 Q1011 NOSIG
Conditions at: SAEZ (BUENOS AIRES/EZE, AR) observed 0400 UTC 19 March 2019
Temperature: 17.0°C (63°F)
Dewpoint: 13.0°C (55°F) [RH = 77%]
Pressure (altimeter): 29.85 inches Hg (1011.0 mb)
Winds: from the SE (140 degrees) at 12 MPH (10 knots; 5.1 m/s)
Visibility: 6 or more miles (10+ km)
Ceiling: ceiling and visibility are OK
Clouds: unknown
Weather: no significant weather observed at this time

METAR text: SAEZ 190300Z 16008KT 9999 FEW019 19/15 Q1010 NOSIG
Conditions at: SAEZ (BUENOS AIRES/EZE, AR) observed 0300 UTC 19 March 2019
Temperature: 19.0°C (66°F)
Dewpoint: 15.0°C (59°F) [RH = 78%]
Pressure (altimeter): 29.82 inches Hg (1010.0 mb)
Winds: from the SSE (160 degrees) at 9 MPH (8 knots; 4.1 m/s)
Visibility: 6 or more miles (10+ km)
Ceiling: at least 12,000 feet AGL
Clouds: few clouds at 1900 feet AGL
Weather: no significant weather observed at this time

METAR text: SAEZ 190200Z 17008KT 120V200 CAVOK 21/16 Q1010 NOSIG
Conditions at: SAEZ (BUENOS AIRES/EZE, AR) observed 0200 UTC 19 March 2019
Temperature: 21.0°C (70°F)
Dewpoint: 16.0°C (61°F) [RH = 73%]
Pressure (altimeter): 29.82 inches Hg (1010.0 mb)
Winds: from the S (170 degrees) at 9 MPH (8 knots; 4.1 m/s)
Visibility: 6 or more miles (10+ km)
Ceiling: ceiling and visibility are OK
Clouds: unknown
Weather: no significant weather observed at this time

METAR text: SAEZ 190100Z 17006KT CAVOK 22/16 Q1009 NOSIG
Conditions at: SAEZ (BUENOS AIRES/EZE, AR) observed 0100 UTC 19 March 2019
Temperature: 22.0°C (72°F)
Dewpoint: 16.0°C (61°F) [RH = 69%]
Pressure (altimeter): 29.79 inches Hg (1009.0 mb)
Winds: from the S (170 degrees) at 7 MPH (6 knots; 3.1 m/s)
Visibility: 6 or more miles (10+ km)
Ceiling: ceiling and visibility are OK
Clouds: unknown
Weather: no significant weather observed at this time

METAR text: SAEZ 190000Z 27001KT CAVOK 20/17 Q1008 NOSIG
Conditions at: SAEZ (BUENOS AIRES/EZE, AR) observed 0000 UTC 19 March 2019
Temperature: 20.0°C (68°F)
Dewpoint: 17.0°C (63°F) [RH = 83%]
Pressure (altimeter): 29.76 inches Hg (1008.0 mb)
Winds: from the W (270 degrees) at 1 MPH (1 knots; 0.5 m/s)
Visibility: 6 or more miles (10+ km)
Ceiling: ceiling and visibility are OK
Clouds: unknown
Weather: no significant weather observed at this time

METAR text: SAEZ 182300Z 00000KT CAVOK 21/17 Q1007 NOSIG
Conditions at: SAEZ (BUENOS AIRES/EZE, AR) observed 2300 UTC 18 March 2019
Temperature: 21.0°C (70°F)
Dewpoint: 17.0°C (63°F) [RH = 78%]
Pressure (altimeter): 29.73 inches Hg (1007.0 mb)
Winds: calm
Visibility: 6 or more miles (10+ km)
Ceiling: ceiling and visibility are OK
Clouds: unknown
Weather: no significant weather observed at this time

METAR text: SAEZ 182200Z 26003KT CAVOK 24/17 Q1007 NOSIG
Conditions at: SAEZ (BUENOS AIRES/EZE, AR) observed 2200 UTC 18 March 2019
Temperature: 24.0°C (75°F)
Dewpoint: 17.0°C (63°F) [RH = 65%]
Pressure (altimeter): 29.73 inches Hg (1007.0 mb)
Winds: from the W (260 degrees) at 3 MPH (3 knots; 1.5 m/s)
Visibility: 6 or more miles (10+ km)
Ceiling: ceiling and visibility are OK
Clouds: unknown
Weather: no significant weather observed at this time

METAR text: SAEZ 182100Z 24004KT CAVOK 27/16 Q1007 NOSIG
Conditions at: SAEZ (BUENOS AIRES/EZE, AR) observed 2100 UTC 18 March 2019
Temperature: 27.0°C (81°F)
Dewpoint: 16.0°C (61°F) [RH = 51%]
Pressure (altimeter): 29.73 inches Hg (1007.0 mb)
Winds: from the WSW (240 degrees) at 5 MPH (4 knots; 2.1 m/s)
Visibility: 6 or more miles (10+ km)
Ceiling: ceiling and visibility are OK
Clouds: unknown
Weather: no significant weather observed at this time

METAR text: SAEZ 182000Z 22005KT CAVOK 28/15 Q1007 NOSIG
Conditions at: SAEZ (BUENOS AIRES/EZE, AR) observed 2000 UTC 18 March 2019
Temperature: 28.0°C (82°F)
Dewpoint: 15.0°C (59°F) [RH = 45%]
Pressure (altimeter): 29.73 inches Hg (1007.0 mb)
Winds: from the SW (220 degrees) at 6 MPH (5 knots; 2.6 m/s)
Visibility: 6 or more miles (10+ km)
Ceiling: ceiling and visibility are OK
Clouds: unknown
Weather: no significant weather observed at this time

METAR text: SAEZ 181900Z 24008KT CAVOK 28/15 Q1007 NOSIG
Conditions at: SAEZ (BUENOS AIRES/EZE, AR) observed 1900 UTC 18 March 2019
Temperature: 28.0°C (82°F)
Dewpoint: 15.0°C (59°F) [RH = 45%]
Pressure (altimeter): 29.73 inches Hg (1007.0 mb)
Winds: from the WSW (240 degrees) at 9 MPH (8 knots; 4.1 m/s)
Visibility: 6 or more miles (10+ km)
Ceiling: ceiling and visibility are OK
Clouds: unknown
Weather: no significant weather observed at this time

METAR text: SAEZ 181800Z 23008KT CAVOK 28/16 Q1007 NOSIG
Conditions at: SAEZ (BUENOS AIRES/EZE, AR) observed 1800 UTC 18 March 2019
Temperature: 28.0°C (82°F)
Dewpoint: 16.0°C (61°F) [RH = 48%]
Pressure (altimeter): 29.73 inches Hg (1007.0 mb)
Winds: from the SW (230 degrees) at 9 MPH (8 knots; 4.1 m/s)
Visibility: 6 or more miles (10+ km)
Ceiling: ceiling and visibility are OK
Clouds: unknown
Weather: no significant weather observed at this time

METAR text: SAEZ 181700Z 23008KT 210V270 9999 FEW049 28/16 Q1008 NOSIG
Conditions at: SAEZ (BUENOS AIRES/EZE, AR) observed 1700 UTC 18 March 2019
Temperature: 28.0°C (82°F)
Dewpoint: 16.0°C (61°F) [RH = 48%]
Pressure (altimeter): 29.76 inches Hg (1008.0 mb)
Winds: from the SW (230 degrees) at 9 MPH (8 knots; 4.1 m/s)
Visibility: 6 or more miles (10+ km)
Ceiling: at least 12,000 feet AGL
Clouds: few clouds at 4900 feet AGL
Weather: no significant weather observed at this time

METAR text: SAEZ 181600Z 22008KT 170V240 9999 FEW041 27/18 Q1008 NOSIG
Conditions at: SAEZ (BUENOS AIRES/EZE, AR) observed 1600 UTC 18 March 2019
Temperature: 27.0°C (81°F)
Dewpoint: 18.0°C (64°F) [RH = 58%]
Pressure (altimeter): 29.76 inches Hg (1008.0 mb)
Winds: from the SW (220 degrees) at 9 MPH (8 knots; 4.1 m/s)
Visibility: 6 or more miles (10+ km)
Ceiling: at least 12,000 feet AGL
Clouds: few clouds at 4100 feet AGL
Weather: no significant weather observed at this time

Forecast for: SAEZ (BUENOS AIRES/EZE, AR)
Text: TAF SAEZ 192300Z 2000/2024 18005KT CAVOK TX20/2019Z TN09/2009Z
Forecast period: 0000 to 1000 UTC 20 March 2019
Forecast type: FROM: standard forecast or significant change
Winds: from the S (180 degrees) at 6 MPH (5 knots; 2.6 m/s)
Visibility: 6 or more miles 10+ km)
Ceiling: unknown
Clouds: missing
Weather: no significant weather forecast for this period
Text: PROB40 2005/2010 VRB03KT 5000 BR NSC
Forecast period: 0500 to 1000 UTC 20 March 2019
Forecast type: PROBABLE: 40 percent likelihood of the following during this time
Winds: variable direction winds at 3 MPH (3 knots; 1.5 m/s)
Visibility: 3 miles (5 km)
Ceiling: unknown
Clouds: missing
Weather: BR  (mist)
Text: BECMG 2010/2012 9999 SCT025
Forecast period: 1000 to 1300 UTC 20 March 2019
Forecast type: BECOMING: Conditions expected to become as follows by 1200 UTC 20 March 2019
Winds: from the S (180 degrees) at 6 MPH (5 knots; 2.6 m/s)
Visibility: 6 or more miles 10+ km)
Ceiling: at least 12,000 feet AGL
Clouds: scattered clouds at 2500 feet AGL
Weather: no significant weather forecast for this period
Text: BECMG 2013/2015 20015KT
Forecast period: 1300 to 2000 UTC 20 March 2019
Forecast type: BECOMING: Conditions expected to become as follows by 1500 UTC 20 March 2019
Winds: from the SSW (200 degrees) at 17 MPH (15 knots; 7.7 m/s)
Visibility: 6 or more miles 10+ km)
Ceiling: at least 12,000 feet AGL
Clouds: scattered clouds at 2500 feet AGL
Weather: no significant weather forecast for this period
Text: BECMG 2020/2023 14005KT CAVOK
Forecast period: 2000 UTC 20 March 2019 to 0000 UTC 21 March 2019
Forecast type: BECOMING: Conditions expected to become as follows by 2300 UTC 20 March 2019
Winds: from the SE (140 degrees) at 6 MPH (5 knots; 2.6 m/s)
Visibility: 6 or more miles 10+ km)
Ceiling: unknown
Clouds: missing
Weather: NSW  (no significant weather)